createdAt,value
2023-05-14T00:02:20.659Z,9.80
2023-05-14T00:04:50.255Z,10.53
2023-05-14T00:07:18.570Z,10.50
2023-05-14T00:09:46.852Z,10.00
2023-05-14T00:12:15.159Z,12.50
2023-05-14T00:14:43.187Z,10.10
2023-05-14T00:17:11.547Z,10.00
2023-05-14T00:19:41.860Z,11.27
2023-05-14T00:22:11.596Z,10.43
2023-05-14T00:24:39.980Z,9.57
2023-05-14T00:27:08.409Z,9.27
2023-05-14T00:29:36.785Z,10.03
2023-05-14T00:32:05.224Z,8.80
2023-05-14T00:34:33.569Z,9.93
2023-05-14T00:37:01.919Z,16.40
2023-05-14T00:39:31.297Z,10.10
2023-05-14T00:41:59.660Z,9.77
2023-05-14T00:44:27.993Z,10.27
2023-05-14T00:46:56.566Z,12.03
2023-05-14T00:49:25.200Z,11.40
2023-05-14T00:51:53.874Z,11.43
2023-05-14T00:54:22.525Z,9.97
2023-05-14T00:56:52.280Z,10.10
2023-05-14T00:59:20.608Z,9.63
2023-05-14T01:01:48.964Z,10.60
2023-05-14T01:04:17.324Z,9.30
2023-05-14T01:06:55.623Z,9.93
2023-05-14T01:09:29.670Z,11.83
2023-05-14T01:12:06.807Z,11.40
2023-05-14T01:14:42.199Z,11.73
2023-05-14T01:17:13.171Z,12.30
2023-05-14T01:19:43.018Z,10.57
2023-05-14T01:22:12.948Z,11.13
2023-05-14T01:24:41.416Z,10.77
2023-05-14T01:27:18.367Z,10.50
2023-05-14T01:29:59.341Z,11.83
2023-05-14T01:32:29.332Z,10.27
2023-05-14T01:34:59.854Z,9.43
2023-05-14T01:37:30.535Z,10.10
2023-05-14T01:40:00.183Z,9.47
2023-05-14T01:42:29.523Z,14.93
2023-05-14T01:44:57.945Z,9.27
2023-05-14T01:47:26.566Z,8.93
2023-05-14T01:49:54.954Z,8.33
2023-05-14T01:52:23.265Z,8.13
2023-05-14T01:54:52.864Z,8.33
2023-05-14T01:57:21.491Z,9.73
2023-05-14T01:59:49.783Z,8.80
2023-05-14T02:02:18.201Z,8.97
2023-05-14T02:04:46.637Z,8.27
2023-05-14T02:07:15.083Z,8.27
2023-05-14T02:09:43.177Z,7.90
2023-05-14T02:12:12.656Z,8.00
2023-05-14T02:14:41.032Z,7.93
2023-05-14T02:17:09.412Z,8.23
2023-05-14T02:19:37.466Z,10.50
2023-05-14T02:22:05.828Z,9.73
2023-05-14T02:24:33.878Z,9.80
2023-05-14T02:27:01.960Z,9.33
2023-05-14T02:29:31.407Z,8.30
2023-05-14T02:31:59.790Z,8.47
2023-05-14T02:34:28.074Z,8.43
2023-05-14T02:36:56.395Z,9.13
2023-05-14T02:39:24.732Z,8.37
2023-05-14T02:41:53.078Z,7.60
2023-05-14T02:44:21.153Z,8.80
2023-05-14T02:46:50.740Z,11.23
2023-05-14T02:49:19.267Z,9.17
2023-05-14T02:51:47.610Z,9.43
2023-05-14T02:54:17.095Z,9.87
2023-05-14T02:56:45.506Z,9.53
2023-05-14T02:59:13.888Z,8.50
2023-05-14T03:01:42.588Z,7.83
2023-05-14T03:04:12.770Z,8.17
2023-05-14T03:06:41.091Z,7.97
2023-05-14T03:09:09.456Z,7.20
2023-05-14T03:11:37.783Z,6.87
2023-05-14T03:14:06.129Z,6.37
2023-05-14T03:16:34.446Z,8.67
2023-05-14T03:19:02.593Z,8.40
2023-05-14T03:21:32.596Z,7.60
2023-05-14T03:24:00.929Z,8.00
2023-05-14T03:26:28.985Z,7.33
2023-05-14T03:28:57.024Z,6.70
2023-05-14T03:31:25.859Z,5.87
2023-05-14T03:33:54.286Z,6.37
2023-05-14T03:36:22.347Z,9.53
2023-05-14T03:38:51.768Z,5.87
2023-05-14T03:41:20.464Z,6.60
2023-05-14T03:43:48.526Z,6.93
2023-05-14T03:46:16.926Z,6.53
2023-05-14T03:48:45.372Z,7.87
2023-05-14T03:51:13.796Z,7.57
2023-05-14T03:53:42.330Z,8.40
2023-05-14T03:56:11.740Z,6.90
2023-05-14T03:58:40.649Z,6.60
2023-05-14T04:01:09.147Z,5.67
2023-05-14T04:03:37.736Z,6.70
2023-05-14T04:06:06.298Z,5.60
2023-05-14T04:08:34.695Z,5.13
2023-05-14T04:11:02.730Z,5.77
2023-05-14T04:13:32.466Z,6.17
2023-05-14T04:16:01.042Z,5.40
2023-05-14T04:18:29.542Z,5.93
2023-05-14T04:20:58.057Z,6.10
2023-05-14T04:23:26.352Z,6.50
2023-05-14T04:25:55.156Z,7.00
2023-05-14T04:28:23.520Z,6.50
2023-05-14T04:30:53.545Z,7.50
2023-05-14T04:33:21.866Z,8.43
2023-05-14T04:35:50.208Z,11.40
2023-05-14T04:38:18.551Z,8.93
2023-05-14T04:40:47.005Z,9.27
2023-05-14T04:43:16.637Z,8.57
2023-05-14T04:45:45.115Z,8.93
2023-05-14T04:48:14.587Z,9.27
2023-05-14T04:50:44.228Z,12.13
2023-05-14T04:53:12.627Z,9.90
2023-05-14T04:55:41.373Z,9.77
2023-05-14T04:58:09.750Z,10.80
2023-05-14T05:00:38.348Z,10.60
2023-05-14T05:03:06.842Z,10.13
2023-05-14T05:05:36.287Z,11.67
2023-05-14T05:08:04.675Z,12.10
2023-05-14T05:10:32.695Z,11.47
2023-05-14T05:13:01.021Z,11.60
2023-05-14T05:15:29.338Z,11.20
2023-05-14T05:17:57.700Z,12.17
2023-05-14T05:20:28.046Z,14.40
2023-05-14T05:22:57.441Z,11.90
2023-05-14T05:25:25.793Z,13.93
2023-05-14T05:27:54.180Z,11.93
2023-05-14T05:30:22.734Z,12.17
2023-05-14T05:32:51.318Z,12.53
2023-05-14T05:35:19.764Z,12.50
2023-05-14T05:37:49.173Z,13.33
2023-05-14T05:40:19.105Z,12.20
2023-05-14T05:42:47.423Z,12.10
2023-05-14T05:45:15.873Z,11.37
2023-05-14T05:47:44.254Z,11.03
2023-05-14T05:50:12.662Z,11.73
2023-05-14T05:52:41.113Z,11.23
2023-05-14T05:55:10.118Z,10.73
2023-05-14T05:57:39.551Z,12.60
2023-05-14T06:00:13.633Z,13.83
2023-05-14T06:02:42.400Z,10.97
2023-05-14T06:05:11.616Z,10.57
2023-05-14T06:07:40.337Z,11.07
2023-05-14T06:10:09.529Z,10.03
2023-05-14T06:12:39.001Z,10.93
2023-05-14T06:15:08.349Z,10.60
2023-05-14T06:17:36.916Z,10.33
2023-05-14T06:20:07.902Z,10.60
2023-05-14T06:22:36.015Z,11.27
2023-05-14T06:25:04.422Z,12.63
2023-05-14T06:27:32.443Z,11.47
2023-05-14T06:30:02.081Z,11.03
2023-05-14T06:32:30.504Z,10.77
2023-05-14T06:34:58.508Z,11.27
2023-05-14T06:37:26.865Z,10.67
2023-05-14T06:39:57.650Z,11.00
2023-05-14T06:42:26.370Z,11.53
2023-05-14T06:44:54.837Z,11.17
2023-05-14T06:47:24.306Z,10.77
2023-05-14T06:49:52.666Z,10.50
2023-05-14T06:52:20.993Z,10.50
2023-05-14T06:54:49.580Z,10.97
2023-05-14T06:57:17.892Z,10.00
2023-05-14T06:59:46.157Z,11.13
2023-05-14T07:02:14.610Z,10.55
2023-05-14T07:04:44.273Z,11.27
2023-05-14T07:07:15.486Z,11.25
2023-05-14T07:09:43.937Z,11.45
2023-05-14T07:12:11.972Z,10.82
2023-05-14T07:14:40.218Z,11.50
2023-05-14T07:17:08.527Z,11.98
2023-05-14T07:19:36.885Z,11.68
2023-05-14T07:22:06.400Z,12.05
2023-05-14T07:24:34.396Z,12.80
2023-05-14T07:27:02.501Z,12.02
2023-05-14T07:29:31.239Z,13.57
2023-05-14T07:31:59.762Z,13.00
2023-05-14T07:34:28.097Z,13.93
2023-05-14T07:36:56.532Z,14.68
2023-05-14T07:39:25.967Z,14.93
2023-05-14T07:41:55.351Z,13.20
2023-05-14T07:44:23.494Z,13.02
2023-05-14T07:46:51.570Z,13.18
2023-05-14T07:49:20.130Z,13.77
2023-05-14T07:51:48.256Z,14.35
2023-05-14T07:54:16.702Z,14.57
2023-05-14T07:56:46.067Z,14.63
2023-05-14T07:59:14.452Z,12.88
2023-05-14T08:01:42.790Z,14.07
2023-05-14T08:04:11.927Z,13.88
2023-05-14T08:06:40.349Z,14.93
2023-05-14T08:09:08.707Z,14.80
2023-05-14T08:11:36.972Z,14.43
2023-05-14T08:14:06.506Z,13.52
2023-05-14T08:16:34.708Z,14.25
2023-05-14T08:19:02.879Z,13.80
2023-05-14T08:21:31.813Z,14.73
2023-05-14T08:23:59.972Z,13.88
2023-05-14T08:26:28.128Z,13.35
2023-05-14T08:28:56.456Z,11.85
2023-05-14T08:31:25.892Z,13.60
2023-05-14T08:33:54.122Z,12.43
2023-05-14T08:36:22.195Z,12.57
2023-05-14T08:38:50.481Z,12.35
2023-05-14T08:41:19.094Z,12.18
2023-05-14T08:43:57.283Z,12.75
2023-05-14T08:46:27.539Z,13.48
2023-05-14T08:49:00.855Z,13.77
2023-05-14T08:51:29.317Z,13.30
2023-05-14T08:54:03.508Z,14.18
2023-05-14T08:56:34.279Z,13.02
2023-05-14T08:59:02.256Z,11.15
2023-05-14T09:01:31.829Z,13.10
2023-05-14T09:04:01.557Z,12.88
2023-05-14T09:06:30.399Z,11.90
2023-05-14T09:08:58.841Z,12.43
2023-05-14T09:11:26.779Z,11.57
2023-05-14T09:13:55.110Z,11.57
2023-05-14T09:16:24.161Z,10.93
2023-05-14T09:18:53.971Z,12.35
2023-05-14T09:21:22.549Z,10.93
2023-05-14T09:23:55.584Z,10.57
2023-05-14T09:26:26.686Z,11.48
2023-05-14T09:29:00.854Z,11.23
2023-05-14T09:31:30.723Z,13.32
2023-05-14T09:34:00.792Z,10.95
2023-05-14T09:36:28.845Z,9.90
2023-05-14T09:38:58.576Z,10.32
2023-05-14T09:41:26.582Z,11.52
2023-05-14T09:43:56.854Z,11.73
2023-05-14T09:46:30.211Z,11.10
2023-05-14T09:48:59.726Z,10.23
2023-05-14T09:51:31.526Z,11.75
2023-05-14T09:53:59.928Z,11.20
2023-05-14T09:56:27.921Z,11.27
2023-05-14T09:58:56.222Z,10.75
2023-05-14T10:01:24.820Z,11.75
2023-05-14T10:03:54.888Z,11.82
2023-05-14T10:06:27.162Z,12.63
2023-05-14T10:08:58.050Z,12.05
2023-05-14T10:11:29.690Z,9.73
2023-05-14T10:14:03.731Z,10.57
2023-05-14T10:16:35.009Z,9.85
2023-05-14T10:19:09.922Z,10.93
2023-05-14T10:21:42.763Z,8.80
2023-05-14T10:24:11.874Z,9.40
2023-05-14T10:26:42.621Z,9.30
2023-05-14T10:29:12.227Z,8.65
2023-05-14T10:31:48.359Z,10.38
2023-05-14T10:34:38.731Z,9.23
2023-05-14T10:37:09.431Z,9.32
2023-05-14T10:39:48.954Z,8.43
2023-05-14T10:42:19.167Z,8.68
2023-05-14T10:44:51.429Z,9.07
2023-05-14T10:47:20.002Z,8.30
2023-05-14T10:49:53.167Z,9.35
2023-05-14T10:52:23.159Z,9.63
2023-05-14T10:54:52.782Z,10.65
2023-05-14T10:57:21.871Z,9.43
2023-05-14T10:59:53.163Z,9.05
2023-05-14T11:02:23.757Z,8.10
2023-05-14T11:04:58.179Z,8.05
2023-05-14T11:07:30.092Z,8.73
2023-05-14T11:10:03.497Z,8.95
2023-05-14T11:12:32.081Z,8.73
2023-05-14T11:15:03.873Z,9.48
2023-05-14T11:17:33.047Z,8.82
2023-05-14T11:20:01.335Z,8.35
2023-05-14T11:22:30.825Z,8.35
2023-05-14T11:25:15.584Z,7.55
2023-05-14T11:27:45.700Z,7.88
2023-05-14T11:30:15.713Z,9.70
2023-05-14T11:32:45.854Z,10.52
2023-05-14T11:35:14.712Z,8.68
2023-05-14T11:37:43.161Z,8.18
2023-05-14T11:40:17.648Z,9.63
2023-05-14T11:42:46.167Z,9.15
2023-05-14T11:45:15.528Z,9.88
2023-05-14T11:47:44.090Z,10.25
2023-05-14T11:50:12.646Z,9.55
2023-05-14T11:52:41.973Z,9.70
2023-05-14T11:55:13.273Z,9.68
2023-05-14T11:57:43.135Z,9.05
2023-05-14T12:00:13.504Z,9.88
2023-05-14T12:02:42.094Z,9.25
2023-05-14T12:05:13.738Z,8.70
2023-05-14T12:07:42.607Z,9.57
2023-05-14T12:10:13.716Z,9.27
2023-05-14T12:12:47.271Z,9.35
2023-05-14T12:15:16.388Z,8.27
2023-05-14T12:17:50.404Z,9.52
2023-05-14T12:20:18.761Z,9.02
2023-05-14T12:22:47.132Z,8.75
2023-05-14T12:25:15.495Z,8.88
2023-05-14T12:27:46.150Z,8.65
2023-05-14T12:32:46.860Z,9.20
2023-05-14T12:35:15.106Z,9.32
2023-05-14T12:37:43.258Z,9.25
2023-05-14T12:40:12.149Z,10.57
2023-05-14T12:42:40.322Z,9.38
2023-05-14T12:45:10.503Z,10.20
2023-05-14T12:47:38.861Z,9.90
2023-05-14T12:50:08.197Z,8.90
2023-05-14T12:52:39.250Z,9.57
2023-05-14T12:55:08.891Z,9.07
2023-05-14T12:57:37.047Z,10.45
2023-05-14T13:00:07.963Z,9.38
2023-05-14T13:02:43.152Z,10.50
2023-05-14T13:05:12.340Z,9.95
2023-05-14T13:07:41.265Z,10.45
2023-05-14T13:10:10.484Z,9.25
2023-05-14T13:12:38.813Z,9.13
2023-05-14T13:15:07.724Z,9.85
2023-05-14T13:17:36.098Z,9.38
2023-05-14T13:20:06.409Z,9.70
2023-05-14T13:22:34.781Z,11.05
2023-05-14T13:25:03.404Z,10.05
2023-05-14T13:27:31.655Z,10.07
2023-05-14T13:29:59.730Z,9.70
2023-05-14T13:32:28.190Z,8.52
2023-05-14T13:34:56.752Z,10.00
2023-05-14T13:37:26.884Z,9.63
2023-05-14T13:39:54.929Z,8.30
2023-05-14T13:42:23.631Z,9.25
2023-05-14T13:44:51.865Z,9.27
2023-05-14T13:47:19.902Z,9.75
2023-05-14T13:49:48.103Z,9.32
2023-05-14T13:52:16.263Z,9.63
2023-05-14T13:54:45.744Z,8.90
2023-05-14T13:57:13.751Z,11.13
2023-05-14T13:59:41.994Z,9.73
2023-05-14T14:02:10.548Z,9.95
2023-05-14T14:04:38.650Z,9.77
2023-05-14T14:07:06.714Z,10.07
2023-05-14T14:09:36.865Z,10.13
2023-05-14T14:12:07.347Z,9.20
2023-05-14T14:14:35.451Z,8.93
2023-05-14T14:17:03.480Z,9.20
2023-05-14T14:19:31.493Z,10.15
2023-05-14T14:21:59.562Z,8.45
2023-05-14T14:24:28.005Z,10.15
2023-05-14T14:26:56.033Z,9.57
2023-05-14T14:29:25.447Z,10.15
2023-05-14T14:31:54.003Z,8.80
2023-05-14T14:34:22.238Z,9.15
2023-05-14T14:36:50.271Z,9.38
2023-05-14T14:39:18.598Z,9.25
2023-05-14T14:41:47.610Z,9.02
2023-05-14T14:44:15.620Z,9.48
2023-05-14T14:46:45.172Z,8.80
2023-05-14T14:49:13.181Z,9.10
2023-05-14T14:51:42.032Z,11.07
2023-05-14T14:54:10.102Z,9.10
2023-05-14T14:56:39.129Z,8.32
2023-05-14T14:59:07.457Z,9.00
2023-05-14T15:01:35.977Z,7.85
2023-05-14T15:04:05.834Z,8.15
2023-05-14T15:06:34.203Z,8.20
2023-05-14T15:09:02.584Z,7.45
2023-05-14T15:11:30.648Z,7.75
2023-05-14T15:13:58.742Z,7.47
2023-05-14T15:16:27.287Z,7.55
2023-05-14T15:18:55.625Z,8.07
2023-05-14T15:21:25.059Z,8.68
2023-05-14T15:23:53.455Z,8.25
2023-05-14T15:26:21.736Z,7.68
2023-05-14T15:28:49.846Z,7.45
2023-05-14T15:31:18.166Z,8.18
2023-05-14T15:33:46.523Z,7.75
2023-05-14T15:36:15.132Z,7.25
2023-05-14T15:38:44.615Z,8.70
2023-05-14T15:41:12.699Z,8.05
2023-05-14T15:43:40.866Z,8.13
2023-05-14T15:46:09.020Z,7.40
2023-05-14T15:48:37.529Z,8.43
2023-05-14T15:51:05.895Z,7.78
2023-05-14T15:53:33.912Z,8.13
2023-05-14T15:56:04.061Z,9.20
2023-05-14T15:58:32.608Z,8.02
2023-05-14T16:01:01.523Z,8.65
2023-05-14T16:03:29.724Z,9.07
2023-05-14T16:05:58.161Z,9.43
2023-05-14T16:08:26.256Z,8.77
2023-05-14T16:10:54.274Z,8.43
2023-05-14T16:13:23.730Z,8.77
2023-05-14T16:15:52.112Z,8.55
2023-05-14T16:18:20.690Z,8.73
2023-05-14T16:20:48.839Z,8.05
2023-05-14T16:23:16.944Z,8.45
2023-05-14T16:25:44.982Z,9.30
2023-05-14T16:28:13.395Z,8.32
2023-05-14T16:30:42.972Z,9.00
2023-05-14T16:33:11.856Z,9.32
2023-05-14T16:35:40.377Z,8.10
2023-05-14T16:38:08.787Z,8.98
2023-05-14T16:40:36.901Z,8.88
2023-05-14T16:43:05.123Z,8.80
2023-05-14T16:45:35.117Z,9.50
2023-05-14T16:48:06.129Z,8.48
2023-05-14T16:50:34.624Z,9.48
2023-05-14T16:53:02.828Z,8.90
2023-05-14T16:55:31.065Z,9.27
2023-05-14T16:57:59.204Z,8.02
2023-05-14T17:00:27.258Z,8.57
2023-05-14T17:02:55.461Z,8.02
2023-05-14T17:05:25.102Z,8.75
2023-05-14T17:07:53.796Z,7.80
2023-05-14T17:10:21.791Z,7.82
2023-05-14T17:12:49.881Z,8.40
2023-05-14T17:15:18.366Z,7.65
2023-05-14T17:17:46.730Z,7.90
2023-05-14T17:20:16.962Z,8.20
2023-05-14T17:22:46.634Z,7.40
2023-05-14T17:25:14.746Z,8.73
2023-05-14T17:27:42.715Z,8.13
2023-05-14T17:30:11.473Z,7.82
2023-05-14T17:32:39.937Z,8.02
2023-05-14T17:35:09.639Z,8.80
2023-05-14T17:37:37.712Z,8.05
2023-05-14T17:40:08.867Z,8.38
2023-05-14T17:42:36.941Z,8.98
2023-05-14T17:45:05.955Z,7.78
2023-05-14T17:47:34.147Z,8.35
2023-05-14T17:50:02.544Z,8.25
2023-05-14T17:52:30.861Z,8.98
2023-05-14T17:54:59.159Z,7.93
2023-05-14T17:57:28.937Z,7.72
2023-05-14T17:59:57.302Z,8.82
2023-05-14T18:02:25.831Z,7.20
2023-05-14T18:04:53.789Z,7.97
2023-05-14T18:07:22.557Z,6.95
2023-05-14T18:09:51.096Z,8.60
2023-05-14T18:12:19.154Z,8.13
2023-05-14T18:14:48.558Z,8.25
2023-05-14T18:17:17.368Z,7.97
2023-05-14T18:19:45.647Z,8.45
2023-05-14T18:22:14.009Z,7.95
2023-05-14T18:24:44.168Z,9.27
2023-05-14T18:27:12.518Z,8.30
2023-05-14T18:29:40.848Z,8.80
2023-05-14T18:32:10.470Z,8.38
2023-05-14T18:34:38.479Z,8.70
2023-05-14T18:37:07.143Z,9.27
2023-05-14T18:39:35.472Z,7.97
2023-05-14T18:42:03.538Z,9.00
2023-05-14T18:44:31.730Z,8.65
2023-05-14T18:47:00.460Z,8.95
2023-05-14T18:49:29.860Z,8.43
2023-05-14T18:51:57.868Z,9.55
2023-05-14T18:54:25.838Z,8.45
2023-05-14T18:56:54.174Z,8.48
2023-05-14T18:59:22.201Z,8.82
2023-05-14T19:01:51.306Z,8.43
2023-05-14T19:04:19.489Z,8.15
2023-05-14T19:06:48.868Z,8.30
2023-05-14T19:09:21.036Z,7.28
2023-05-14T19:11:49.496Z,6.97
2023-05-14T19:14:18.007Z,7.57
2023-05-14T19:16:46.291Z,7.53
2023-05-14T19:19:14.768Z,8.02
2023-05-14T19:21:42.866Z,8.75
2023-05-14T19:24:12.491Z,8.13
2023-05-14T19:26:40.809Z,8.13
2023-05-14T19:29:09.205Z,7.40
2023-05-14T19:31:37.717Z,7.55
2023-05-14T19:34:06.473Z,7.20
2023-05-14T19:36:34.503Z,7.78
2023-05-14T19:39:03.169Z,7.13
2023-05-14T19:41:32.622Z,7.20
2023-05-14T19:44:00.847Z,7.00
2023-05-14T19:46:29.302Z,6.45
2023-05-14T19:48:57.408Z,8.43
2023-05-14T19:51:26.309Z,7.63
2023-05-14T19:53:54.723Z,8.07
2023-05-14T19:56:24.779Z,7.78
2023-05-14T19:58:56.013Z,7.97
2023-05-14T20:01:24.282Z,7.05
2023-05-14T20:03:52.638Z,8.20
2023-05-14T20:06:21.201Z,7.13
2023-05-14T20:08:51.400Z,7.57
2023-05-14T20:11:19.745Z,7.10
2023-05-14T20:13:48.159Z,8.15
2023-05-14T20:16:17.790Z,7.50
2023-05-14T20:18:46.436Z,7.75
2023-05-14T20:21:14.739Z,7.30
2023-05-14T20:23:43.052Z,7.88
2023-05-14T20:26:11.446Z,6.80
2023-05-14T20:28:39.642Z,7.28
2023-05-14T20:31:08.076Z,7.38
2023-05-14T20:33:37.538Z,7.80
2023-05-14T20:36:06.051Z,7.45
2023-05-14T20:38:35.044Z,7.18
2023-05-14T20:41:03.548Z,7.47
2023-05-14T20:43:31.675Z,7.95
2023-05-14T20:46:00.456Z,8.50
2023-05-14T20:48:28.871Z,8.20
2023-05-14T20:50:58.279Z,7.68
2023-05-14T20:53:28.335Z,8.75
2023-05-14T20:55:56.630Z,8.43
2023-05-14T20:58:24.677Z,8.05
2023-05-14T21:00:52.978Z,8.05
2023-05-14T21:03:21.445Z,8.60
2023-05-14T21:05:49.601Z,7.97
2023-05-14T21:08:18.965Z,7.97
2023-05-14T21:10:47.410Z,7.10
2023-05-14T21:13:15.741Z,7.03
2023-05-14T21:15:44.094Z,7.38
2023-05-14T21:18:12.815Z,7.60
2023-05-14T21:20:41.315Z,7.28
2023-05-14T21:23:09.737Z,7.57
2023-05-14T21:25:39.238Z,8.20
2023-05-14T21:28:07.622Z,8.00
2023-05-14T21:30:35.964Z,8.30
2023-05-14T21:33:04.402Z,8.13
2023-05-14T21:35:32.866Z,7.47
2023-05-14T21:38:01.245Z,9.32
2023-05-14T21:40:29.582Z,7.75
2023-05-14T21:42:59.031Z,8.23
2023-05-14T21:45:27.586Z,7.28
2023-05-14T21:47:56.334Z,8.60
2023-05-14T21:50:24.656Z,6.93
2023-05-14T21:52:52.884Z,9.32
2023-05-14T21:55:21.383Z,7.57
2023-05-14T21:57:49.738Z,7.13
2023-05-14T22:00:23.439Z,7.83
2023-05-14T22:02:52.113Z,6.93
2023-05-14T22:05:20.509Z,7.10
2023-05-14T22:07:49.982Z,7.35
2023-05-14T22:10:18.516Z,6.47
2023-05-14T22:12:47.134Z,7.47
2023-05-14T22:15:15.475Z,7.70
2023-05-14T22:17:45.027Z,7.23
2023-05-14T22:20:13.511Z,7.83
2023-05-14T22:22:41.604Z,7.03
2023-05-14T22:25:10.444Z,7.23
2023-05-14T22:27:39.090Z,7.80
2023-05-14T22:30:08.535Z,9.33
2023-05-14T22:32:36.632Z,7.93
2023-05-14T22:35:06.572Z,7.68
2023-05-14T22:37:35.005Z,7.23
2023-05-14T22:40:05.180Z,7.80
2023-05-14T22:42:33.469Z,7.77
2023-05-14T22:45:01.765Z,7.53
2023-05-14T22:47:30.154Z,8.43
2023-05-14T22:49:58.262Z,8.00
2023-05-14T22:52:27.960Z,7.55
2023-05-14T22:54:56.382Z,8.32
2023-05-14T22:57:24.703Z,7.50
2023-05-14T22:59:53.194Z,7.00
2023-05-14T23:02:21.668Z,6.88
2023-05-14T23:04:50.040Z,7.57
2023-05-14T23:07:18.421Z,7.57
2023-05-14T23:09:47.865Z,7.73
2023-05-14T23:12:16.002Z,7.43
2023-05-14T23:14:44.361Z,7.60
2023-05-14T23:17:12.659Z,7.65
2023-05-14T23:19:41.427Z,9.67
2023-05-14T23:22:09.844Z,6.60
2023-05-14T23:24:38.296Z,9.93
2023-05-14T23:27:08.016Z,7.60
2023-05-14T23:29:36.424Z,6.70
2023-05-14T23:32:04.869Z,6.90
2023-05-14T23:34:33.265Z,6.90
2023-05-14T23:37:01.582Z,7.63
2023-05-14T23:39:29.964Z,7.17
2023-05-14T23:41:58.298Z,7.07
2023-05-14T23:44:27.670Z,7.27
2023-05-14T23:46:55.956Z,7.90
2023-05-14T23:49:23.982Z,8.07
2023-05-14T23:51:52.510Z,8.63
2023-05-14T23:54:21.207Z,8.83
2023-05-14T23:56:49.867Z,8.93
2023-05-14T23:59:17.983Z,8.53
